createdAt,value
2022-10-29T00:01:00.308Z,16.80
2022-10-29T00:03:27.577Z,16.80
2022-10-29T00:05:58.613Z,16.80
2022-10-29T00:08:25.610Z,16.70
2022-10-29T00:10:52.510Z,16.80
2022-10-29T00:13:19.333Z,16.70
2022-10-29T00:15:46.035Z,16.70
2022-10-29T00:18:12.892Z,16.60
2022-10-29T00:20:39.714Z,16.70
2022-10-29T00:23:06.598Z,16.60
2022-10-29T00:25:33.479Z,16.60
2022-10-29T00:28:00.423Z,16.60
2022-10-29T00:30:27.274Z,16.60
2022-10-29T00:32:54.702Z,16.60
2022-10-29T00:35:21.666Z,16.50
2022-10-29T00:37:48.415Z,16.50
2022-10-29T00:40:15.186Z,16.50
2022-10-29T00:42:42.065Z,16.40
2022-10-29T00:45:14.516Z,16.40
2022-10-29T00:47:41.407Z,16.30
2022-10-29T00:50:10.577Z,16.30
2022-10-29T00:52:41.353Z,16.30
2022-10-29T00:55:09.016Z,16.30
2022-10-29T00:57:39.038Z,16.30
2022-10-29T01:00:06.519Z,16.20
2022-10-29T01:02:34.108Z,16.20
2022-10-29T01:05:01.863Z,16.10
2022-10-29T01:07:29.004Z,16.10
2022-10-29T01:09:56.114Z,16.10
2022-10-29T01:12:25.987Z,16.10
2022-10-29T01:15:08.283Z,16.10
2022-10-29T01:17:41.435Z,16.10
2022-10-29T01:20:26.885Z,16.10
2022-10-29T01:23:03.978Z,16.00
2022-10-29T01:25:36.899Z,16.00
2022-10-29T01:28:09.884Z,15.90
2022-10-29T01:30:42.669Z,15.90
2022-10-29T01:33:09.403Z,15.90
2022-10-29T01:35:43.803Z,15.80
2022-10-29T01:38:16.837Z,15.80
2022-10-29T01:40:57.175Z,15.80
2022-10-29T01:43:31.818Z,15.70
2022-10-29T01:46:01.650Z,15.70
2022-10-29T01:48:36.114Z,15.70
2022-10-29T01:51:05.013Z,15.70
2022-10-29T01:53:34.825Z,15.60
2022-10-29T01:56:01.805Z,15.60
2022-10-29T01:58:28.628Z,15.60
2022-10-29T02:01:03.062Z,15.60
2022-10-29T02:03:45.142Z,15.50
2022-10-29T02:06:11.884Z,15.50
2022-10-29T02:08:53.450Z,15.40
2022-10-29T02:11:27.843Z,15.40
2022-10-29T02:14:02.262Z,15.30
2022-10-29T02:16:30.023Z,15.30
2022-10-29T02:18:58.052Z,15.30
2022-10-29T02:21:24.821Z,15.20
2022-10-29T02:23:51.840Z,15.30
2022-10-29T02:26:18.924Z,15.30
2022-10-29T02:28:45.609Z,15.20
2022-10-29T02:31:12.471Z,15.20
2022-10-29T02:33:39.215Z,15.20
2022-10-29T02:36:06.174Z,15.20
2022-10-29T02:38:33.112Z,15.10
2022-10-29T02:41:00.025Z,15.10
2022-10-29T02:43:26.829Z,15.10
2022-10-29T02:46:12.099Z,15.00
2022-10-29T02:48:38.968Z,15.00
2022-10-29T02:51:05.888Z,14.90
2022-10-29T02:53:32.692Z,14.90
2022-10-29T02:55:59.399Z,14.90
2022-10-29T02:58:26.244Z,14.80
2022-10-29T03:00:53.096Z,14.80
2022-10-29T03:03:19.855Z,14.80
2022-10-29T03:05:49.244Z,14.80
2022-10-29T03:08:16.671Z,14.80
2022-10-29T03:10:43.664Z,14.90
2022-10-29T03:13:10.726Z,14.80
2022-10-29T03:15:37.766Z,14.90
2022-10-29T03:18:05.087Z,14.90
2022-10-29T03:20:32.188Z,14.90
2022-10-29T03:22:59.296Z,14.90
2022-10-29T03:25:26.022Z,14.90
2022-10-29T03:27:52.896Z,14.90
2022-10-29T03:30:19.870Z,14.90
2022-10-29T03:32:47.388Z,14.90
2022-10-29T03:35:15.359Z,15.00
2022-10-29T03:37:42.092Z,15.00
2022-10-29T03:40:09.164Z,14.90
2022-10-29T03:42:36.020Z,14.90
2022-10-29T03:45:02.889Z,14.90
2022-10-29T03:47:29.973Z,14.90
2022-10-29T03:49:56.821Z,14.90
2022-10-29T03:52:23.629Z,14.90
2022-10-29T03:54:50.553Z,14.90
2022-10-29T03:57:17.327Z,14.90
2022-10-29T03:59:46.000Z,14.90
2022-10-29T04:02:15.311Z,14.90
2022-10-29T04:04:42.086Z,14.90
2022-10-29T04:07:08.839Z,14.90
2022-10-29T04:09:35.646Z,14.90
2022-10-29T04:12:02.795Z,14.90
2022-10-29T04:14:29.883Z,14.90
2022-10-29T04:16:57.738Z,14.90
2022-10-29T04:19:24.686Z,14.90
2022-10-29T04:28:36.809Z,14.90
2022-10-29T04:32:43.856Z,14.80
2022-10-29T04:35:10.668Z,14.70
2022-10-29T04:37:37.395Z,14.70
2022-10-29T04:40:04.388Z,14.60
2022-10-29T04:42:36.081Z,14.60
2022-10-29T04:45:02.947Z,14.50
2022-10-29T04:47:29.782Z,14.50
2022-10-29T04:49:56.511Z,14.50
2022-10-29T04:52:23.329Z,14.50
2022-10-29T04:54:50.037Z,14.40
2022-10-29T04:57:16.813Z,14.40
2022-10-29T04:59:43.555Z,14.40
2022-10-29T05:02:10.558Z,14.40
2022-10-29T05:04:40.313Z,14.40
2022-10-29T05:07:07.559Z,14.40
2022-10-29T05:09:34.283Z,14.40
2022-10-29T05:12:28.354Z,14.40
2022-10-29T05:14:55.114Z,14.40
2022-10-29T05:17:21.960Z,14.40
2022-10-29T05:19:48.701Z,14.40
2022-10-29T05:22:15.572Z,14.40
2022-10-29T05:24:42.359Z,14.50
2022-10-29T05:27:09.246Z,14.50
2022-10-29T05:29:35.991Z,14.50
2022-10-29T05:32:02.872Z,14.60
2022-10-29T05:34:29.731Z,14.50
2022-10-29T05:36:57.635Z,14.60
2022-10-29T05:39:24.454Z,14.60
2022-10-29T05:41:51.377Z,14.60
2022-10-29T05:44:18.203Z,14.60
2022-10-29T05:46:48.063Z,14.60
2022-10-29T05:49:14.829Z,14.60
2022-10-29T05:51:41.575Z,14.60
2022-10-29T05:54:08.436Z,14.60
2022-10-29T05:56:35.355Z,14.60
2022-10-29T05:59:02.771Z,14.60
2022-10-29T06:01:30.653Z,14.60
2022-10-29T06:03:58.022Z,14.60
2022-10-29T06:06:24.874Z,14.60
2022-10-29T06:08:51.721Z,14.70
2022-10-29T06:11:18.535Z,14.60
2022-10-29T06:13:45.326Z,14.60
2022-10-29T06:16:12.120Z,14.60
2022-10-29T06:18:38.950Z,14.70
2022-10-29T06:21:05.713Z,14.60
2022-10-29T06:23:32.548Z,14.60
2022-10-29T06:26:00.750Z,14.60
2022-10-29T06:28:33.461Z,14.60
2022-10-29T06:31:01.830Z,14.60
2022-10-29T06:33:28.780Z,14.60
2022-10-29T06:35:58.173Z,14.60
2022-10-29T06:38:25.026Z,14.60
2022-10-29T06:40:55.392Z,14.60
2022-10-29T06:43:22.222Z,14.50
2022-10-29T06:45:50.815Z,14.60
2022-10-29T06:48:21.757Z,14.50
2022-10-29T06:50:50.304Z,14.60
2022-10-29T06:53:18.020Z,14.50
2022-10-29T06:55:45.260Z,14.50
2022-10-29T06:58:13.429Z,14.50
2022-10-29T07:00:40.941Z,14.50
2022-10-29T07:03:08.976Z,14.60
2022-10-29T07:05:36.419Z,14.60
2022-10-29T07:08:03.552Z,14.60
2022-10-29T07:10:31.307Z,14.60
2022-10-29T07:12:58.801Z,14.60
2022-10-29T07:15:27.712Z,14.60
2022-10-29T07:18:00.680Z,14.60
2022-10-29T07:20:28.319Z,14.60
2022-10-29T07:22:55.107Z,14.70
2022-10-29T07:25:22.105Z,14.70
2022-10-29T07:27:48.975Z,14.70
2022-10-29T07:30:16.069Z,14.70
2022-10-29T07:32:42.764Z,14.70
2022-10-29T07:35:09.755Z,14.70
2022-10-29T07:37:36.604Z,14.70
2022-10-29T07:40:03.845Z,14.70
2022-10-29T07:42:30.812Z,14.70
2022-10-29T07:44:57.713Z,14.70
2022-10-29T07:47:24.453Z,14.80
2022-10-29T07:50:01.514Z,14.80
2022-10-29T07:52:28.355Z,14.80
2022-10-29T07:54:55.295Z,14.80
2022-10-29T07:57:22.460Z,14.70
2022-10-29T07:59:50.479Z,14.80
2022-10-29T08:02:17.464Z,14.80
2022-10-29T08:04:44.423Z,14.80
2022-10-29T08:07:11.421Z,14.80
2022-10-29T08:09:38.360Z,14.80
2022-10-29T08:12:07.033Z,14.80
2022-10-29T08:14:33.946Z,14.80
2022-10-29T08:17:00.731Z,14.90
2022-10-29T08:19:29.823Z,14.90
2022-10-29T08:21:56.751Z,14.90
2022-10-29T08:24:23.602Z,14.90
2022-10-29T08:26:51.230Z,15.00
2022-10-29T08:29:18.026Z,15.00
2022-10-29T08:31:44.733Z,15.00
2022-10-29T08:34:11.556Z,15.00
2022-10-29T08:36:38.720Z,15.00
2022-10-29T08:39:05.684Z,15.00
2022-10-29T08:41:46.687Z,15.00
2022-10-29T08:44:25.783Z,15.10
2022-10-29T08:46:56.820Z,15.10
2022-10-29T08:49:43.051Z,15.10
2022-10-29T08:52:28.670Z,15.10
2022-10-29T08:55:03.991Z,15.10
2022-10-29T08:57:33.220Z,15.10
2022-10-29T09:00:04.235Z,15.10
2022-10-29T09:02:31.672Z,15.10
2022-10-29T09:04:58.915Z,15.10
2022-10-29T09:07:38.057Z,15.20
2022-10-29T09:10:17.249Z,15.20
2022-10-29T09:12:50.134Z,15.20
2022-10-29T09:15:29.226Z,15.30
2022-10-29T09:18:09.073Z,15.40
2022-10-29T09:20:42.163Z,15.50
2022-10-29T09:23:27.709Z,15.50
2022-10-29T09:25:54.510Z,15.50
2022-10-29T09:28:33.895Z,15.60
2022-10-29T09:31:00.657Z,15.60
2022-10-29T09:33:27.707Z,15.70
2022-10-29T09:35:55.707Z,15.70
2022-10-29T09:38:22.499Z,15.70
2022-10-29T09:40:49.453Z,15.80
2022-10-29T09:43:25.175Z,15.80
2022-10-29T09:45:58.765Z,15.80
2022-10-29T09:48:30.096Z,15.80
2022-10-29T09:51:01.469Z,15.80
2022-10-29T09:53:29.605Z,15.80
2022-10-29T09:55:56.341Z,15.80
2022-10-29T09:58:27.255Z,15.80
2022-10-29T10:00:54.924Z,15.90
2022-10-29T10:03:25.920Z,15.90
2022-10-29T10:05:57.392Z,16.00
2022-10-29T10:08:24.410Z,16.00
2022-10-29T10:10:55.727Z,16.00
2022-10-29T10:13:26.260Z,16.00
2022-10-29T10:16:05.294Z,16.00
2022-10-29T10:18:32.064Z,16.00
2022-10-29T10:21:10.363Z,16.00
2022-10-29T10:23:43.274Z,16.00
2022-10-29T10:26:37.328Z,16.00
2022-10-29T10:29:05.435Z,16.10
2022-10-29T10:31:32.358Z,16.00
2022-10-29T10:33:59.090Z,16.10
2022-10-29T10:36:26.601Z,16.10
2022-10-29T10:38:54.615Z,16.00
2022-10-29T10:41:25.803Z,16.10
2022-10-29T10:43:54.741Z,16.10
2022-10-29T10:46:26.439Z,16.10
2022-10-29T10:48:59.447Z,16.10
2022-10-29T10:51:29.214Z,16.10
2022-10-29T10:53:56.773Z,16.10
2022-10-29T10:56:23.537Z,16.20
2022-10-29T10:59:03.421Z,16.20
2022-10-29T11:01:38.402Z,16.20
2022-10-29T11:04:05.222Z,16.30
2022-10-29T11:06:33.945Z,16.30
2022-10-29T11:09:20.981Z,16.30
2022-10-29T11:11:54.921Z,16.30
2022-10-29T11:14:36.684Z,16.30
2022-10-29T11:17:04.839Z,16.30
2022-10-29T11:19:41.151Z,16.30
2022-10-29T11:22:07.937Z,16.30
2022-10-29T11:24:57.327Z,16.40
2022-10-29T11:27:36.380Z,16.40
2022-10-29T11:30:06.549Z,16.50
2022-10-29T11:32:38.663Z,16.50
2022-10-29T11:35:13.289Z,16.50
2022-10-29T11:37:48.134Z,16.50
2022-10-29T11:40:20.818Z,16.60
2022-10-29T11:42:47.732Z,16.60
2022-10-29T11:45:17.020Z,16.60
2022-10-29T11:47:50.080Z,16.60
2022-10-29T11:50:35.714Z,16.70
2022-10-29T11:53:21.470Z,16.70
2022-10-29T11:55:51.430Z,16.70
2022-10-29T11:58:24.778Z,16.80
2022-10-29T12:01:12.101Z,16.80
2022-10-29T12:03:47.151Z,16.80
2022-10-29T12:06:17.442Z,16.80
2022-10-29T12:09:02.328Z,16.80
2022-10-29T12:11:32.104Z,16.90
2022-10-29T12:14:03.717Z,16.90
2022-10-29T12:16:42.557Z,16.90
2022-10-29T12:19:24.743Z,17.00
2022-10-29T12:21:59.176Z,17.00
2022-10-29T12:24:40.984Z,17.00
2022-10-29T12:27:15.107Z,17.00
2022-10-29T12:29:46.818Z,17.10
2022-10-29T12:32:13.667Z,17.10
2022-10-29T12:34:45.155Z,17.10
2022-10-29T12:37:21.420Z,17.10
2022-10-29T12:40:02.440Z,17.10
2022-10-29T12:42:32.359Z,17.10
2022-10-29T12:45:18.422Z,17.20
2022-10-29T12:47:45.439Z,17.20
2022-10-29T12:50:31.085Z,17.20
2022-10-29T12:53:27.247Z,17.30
2022-10-29T12:55:55.066Z,17.30
2022-10-29T12:58:40.783Z,17.30
2022-10-29T13:01:07.664Z,17.30
2022-10-29T13:03:53.039Z,17.30
2022-10-29T13:06:55.013Z,17.30
2022-10-29T13:09:23.098Z,17.40
2022-10-29T13:11:51.381Z,17.40
2022-10-29T13:14:23.153Z,17.40
2022-10-29T13:16:51.932Z,17.40
2022-10-29T13:19:48.303Z,17.40
2022-10-29T13:22:15.406Z,17.40
2022-10-29T13:24:42.497Z,17.40
2022-10-29T13:27:12.737Z,17.40
2022-10-29T13:29:43.896Z,17.40
2022-10-29T13:32:33.691Z,17.40
2022-10-29T13:35:01.604Z,17.40
2022-10-29T13:37:34.619Z,17.40
2022-10-29T13:40:20.624Z,17.40
2022-10-29T13:42:53.612Z,17.40
2022-10-29T13:45:20.938Z,17.40
2022-10-29T13:47:48.207Z,17.40
2022-10-29T13:50:17.028Z,17.50
2022-10-29T13:52:44.609Z,17.40
2022-10-29T13:55:15.102Z,17.40
2022-10-29T13:58:00.910Z,17.40
2022-10-29T14:00:29.707Z,17.40
2022-10-29T14:02:57.858Z,17.50
2022-10-29T14:05:29.709Z,17.50
2022-10-29T14:08:06.013Z,17.50
2022-10-29T14:10:35.889Z,17.50
2022-10-29T14:13:11.258Z,17.50
2022-10-29T14:15:43.053Z,17.50
2022-10-29T14:18:23.867Z,17.60
2022-10-29T14:20:57.473Z,17.60
2022-10-29T14:23:24.571Z,17.60
2022-10-29T14:25:55.678Z,17.60
2022-10-29T14:28:25.719Z,17.50
2022-10-29T14:31:01.270Z,17.60
2022-10-29T14:33:29.898Z,17.50
2022-10-29T14:36:09.405Z,17.50
2022-10-29T14:38:42.698Z,17.50
2022-10-29T14:41:11.061Z,17.50
2022-10-29T14:43:38.185Z,17.50
2022-10-29T14:46:14.524Z,17.50
2022-10-29T14:48:47.494Z,17.50
2022-10-29T14:51:22.195Z,17.50
2022-10-29T14:53:58.062Z,17.50
2022-10-29T14:56:28.392Z,17.50
2022-10-29T14:58:55.658Z,17.50
2022-10-29T15:01:22.734Z,17.50
2022-10-29T15:03:56.098Z,17.50
2022-10-29T15:06:28.083Z,17.50
2022-10-29T15:08:56.594Z,17.50
2022-10-29T15:11:47.589Z,17.50
2022-10-29T15:14:43.639Z,17.50
2022-10-29T15:17:31.307Z,17.50
2022-10-29T15:20:04.061Z,17.40
2022-10-29T15:22:32.986Z,17.40
2022-10-29T15:25:05.146Z,17.40
2022-10-29T15:27:32.272Z,17.40
2022-10-29T15:29:59.480Z,17.30
2022-10-29T15:32:30.571Z,17.40
2022-10-29T15:35:01.890Z,17.30
2022-10-29T15:37:32.138Z,17.30
2022-10-29T15:39:59.366Z,17.30
2022-10-29T15:42:37.063Z,17.30
2022-10-29T15:45:16.100Z,17.20
2022-10-29T15:47:46.030Z,17.20
2022-10-29T15:50:14.491Z,17.20
2022-10-29T15:52:52.024Z,17.20
2022-10-29T15:55:29.597Z,17.20
2022-10-29T15:58:01.027Z,17.20
2022-10-29T16:00:32.637Z,17.10
2022-10-29T16:03:13.271Z,17.00
2022-10-29T16:05:40.782Z,17.00
2022-10-29T16:08:14.805Z,17.00
2022-10-29T16:10:41.749Z,17.00
2022-10-29T16:13:10.953Z,17.00
2022-10-29T16:15:40.232Z,16.90
2022-10-29T16:18:10.900Z,16.80
2022-10-29T16:20:37.771Z,16.80
2022-10-29T16:23:04.793Z,16.80
2022-10-29T16:25:32.708Z,16.80
2022-10-29T16:28:00.073Z,16.80
2022-10-29T16:30:27.572Z,16.80
2022-10-29T16:32:55.401Z,16.80
2022-10-29T16:35:23.952Z,16.80
2022-10-29T16:37:51.472Z,16.80
2022-10-29T16:40:19.301Z,16.70
2022-10-29T16:42:46.636Z,16.70
2022-10-29T16:45:18.078Z,16.70
2022-10-29T16:47:45.184Z,16.70
2022-10-29T16:50:16.392Z,16.70
2022-10-29T16:52:56.996Z,16.70
2022-10-29T16:55:24.501Z,16.70
2022-10-29T16:57:51.597Z,16.70
2022-10-29T17:00:18.600Z,16.70
2022-10-29T17:02:53.615Z,16.60
2022-10-29T17:05:20.532Z,16.60
2022-10-29T17:07:47.334Z,16.50
2022-10-29T17:10:14.063Z,16.50
2022-10-29T17:12:40.846Z,16.50
2022-10-29T17:15:07.828Z,16.40
2022-10-29T17:17:34.597Z,16.40
2022-10-29T17:20:01.686Z,16.40
2022-10-29T17:22:28.476Z,16.40
2022-10-29T17:24:55.171Z,16.30
2022-10-29T17:27:24.522Z,16.30
2022-10-29T17:29:57.022Z,16.30
2022-10-29T17:32:25.006Z,16.30
2022-10-29T17:34:51.889Z,16.30
2022-10-29T17:37:18.720Z,16.30
2022-10-29T17:39:45.557Z,16.20
2022-10-29T17:42:12.534Z,16.30
2022-10-29T17:44:39.259Z,16.30
2022-10-29T17:47:06.478Z,16.30
2022-10-29T17:49:34.162Z,16.30
2022-10-29T17:52:03.527Z,16.30
2022-10-29T17:54:30.715Z,16.20
2022-10-29T17:56:57.792Z,16.20
2022-10-29T17:59:24.850Z,16.20
2022-10-29T18:01:51.929Z,16.20
2022-10-29T18:04:19.179Z,16.10
2022-10-29T18:06:46.215Z,16.10
2022-10-29T18:09:17.131Z,16.10
2022-10-29T18:11:48.528Z,16.10
2022-10-29T18:14:15.846Z,16.00
2022-10-29T18:16:46.377Z,16.10
2022-10-29T18:19:17.525Z,16.10
2022-10-29T18:21:44.322Z,16.10
2022-10-29T18:24:11.172Z,16.10
2022-10-29T18:26:41.460Z,16.10
2022-10-29T18:29:09.984Z,16.00
2022-10-29T18:31:38.077Z,16.00
2022-10-29T18:34:07.119Z,16.00
2022-10-29T18:36:36.809Z,16.00
2022-10-29T18:39:04.835Z,16.00
2022-10-29T18:41:32.706Z,16.00
2022-10-29T18:44:00.128Z,16.00
2022-10-29T18:46:27.230Z,16.00
2022-10-29T18:48:54.486Z,16.00
2022-10-29T18:51:24.541Z,15.90
2022-10-29T18:53:52.078Z,15.90
2022-10-29T18:56:19.820Z,15.90
2022-10-29T18:58:50.838Z,15.90
2022-10-29T19:01:19.771Z,15.90
2022-10-29T19:03:50.960Z,15.90
2022-10-29T19:06:18.309Z,15.90
2022-10-29T19:08:45.443Z,15.90
2022-10-29T19:11:13.936Z,15.90
2022-10-29T19:13:40.993Z,15.90
2022-10-29T19:16:09.308Z,15.90
2022-10-29T19:18:36.820Z,15.90
2022-10-29T19:21:06.824Z,15.90
2022-10-29T19:23:33.782Z,16.00
2022-10-29T19:26:04.730Z,16.00
2022-10-29T19:28:31.958Z,16.00
2022-10-29T19:31:06.216Z,16.10
2022-10-29T19:33:33.138Z,16.10
2022-10-29T19:36:00.500Z,16.00
2022-10-29T19:38:28.181Z,16.10
2022-10-29T19:40:57.225Z,16.10
2022-10-29T19:43:24.897Z,16.10
2022-10-29T19:45:52.229Z,16.10
2022-10-29T19:48:19.210Z,16.10
2022-10-29T19:50:46.472Z,16.10
2022-10-29T19:53:13.467Z,16.10
2022-10-29T19:55:41.188Z,16.10
2022-10-29T19:58:09.695Z,16.10
2022-10-29T20:00:37.248Z,16.10
2022-10-29T20:03:04.587Z,16.00
2022-10-29T20:08:01.579Z,16.00
2022-10-29T20:10:28.435Z,16.00
2022-10-29T20:12:55.807Z,16.00
2022-10-29T20:15:22.981Z,16.00
2022-10-29T20:17:49.764Z,16.00
2022-10-29T20:20:17.356Z,16.00
2022-10-29T20:22:46.416Z,15.90
2022-10-29T20:25:15.204Z,16.00
2022-10-29T20:27:42.360Z,15.90
2022-10-29T20:30:10.421Z,15.90
2022-10-29T20:32:37.946Z,15.90
2022-10-29T20:35:05.075Z,15.90
2022-10-29T20:37:32.082Z,15.90
2022-10-29T20:39:59.591Z,15.90
2022-10-29T20:42:26.608Z,15.90
2022-10-29T20:44:53.354Z,15.90
2022-10-29T20:47:20.334Z,15.90
2022-10-29T20:49:47.132Z,15.90
2022-10-29T20:52:14.393Z,15.90
2022-10-29T20:54:41.483Z,15.90
2022-10-29T20:57:08.251Z,15.90
2022-10-29T20:59:35.434Z,15.90
2022-10-29T21:02:02.751Z,15.80
2022-10-29T21:04:30.109Z,15.80
2022-10-29T21:06:56.886Z,15.80
2022-10-29T21:09:24.175Z,15.70
2022-10-29T21:11:51.434Z,15.70
2022-10-29T21:14:18.455Z,15.70
2022-10-29T21:16:45.574Z,15.70
2022-10-29T21:19:12.595Z,15.60
2022-10-29T21:21:40.259Z,15.60
2022-10-29T21:24:07.288Z,15.60
2022-10-29T21:26:34.270Z,15.60
2022-10-29T21:29:01.440Z,15.60
2022-10-29T21:31:28.561Z,15.60
2022-10-29T21:33:55.991Z,15.60
2022-10-29T21:36:23.214Z,15.60
2022-10-29T21:38:50.122Z,15.50
2022-10-29T21:41:18.461Z,15.50
2022-10-29T21:43:45.787Z,15.50
2022-10-29T21:46:12.768Z,15.50
2022-10-29T21:48:39.817Z,15.40
2022-10-29T21:51:08.229Z,15.40
2022-10-29T21:53:35.841Z,15.40
2022-10-29T21:56:04.953Z,15.40
2022-10-29T21:58:32.204Z,15.40
2022-10-29T22:01:07.080Z,15.40
2022-10-29T22:03:35.106Z,15.40
2022-10-29T22:06:06.191Z,15.30
2022-10-29T22:08:33.532Z,15.30
2022-10-29T22:11:00.860Z,15.30
2022-10-29T22:13:28.607Z,15.30
2022-10-29T22:15:55.573Z,15.30
2022-10-29T22:18:22.898Z,15.30
2022-10-29T22:20:49.914Z,15.20
2022-10-29T22:25:49.157Z,15.20
2022-10-29T22:28:15.992Z,15.20
2022-10-29T22:30:42.894Z,15.20
2022-10-29T22:33:09.803Z,15.10
2022-10-29T22:35:36.693Z,15.10
2022-10-29T22:38:03.644Z,15.10
2022-10-29T22:40:30.462Z,15.10
2022-10-29T22:42:57.626Z,15.10
2022-10-29T22:45:24.551Z,15.10
2022-10-29T22:47:51.605Z,15.10
2022-10-29T22:50:19.511Z,15.00
2022-10-29T22:52:46.425Z,15.00
2022-10-29T22:55:15.725Z,15.00
2022-10-29T22:57:42.661Z,15.00
2022-10-29T23:00:10.742Z,15.00
2022-10-29T23:02:37.700Z,15.00
2022-10-29T23:05:04.674Z,15.00
2022-10-29T23:10:25.231Z,15.00
2022-10-29T23:12:52.039Z,15.00
2022-10-29T23:15:19.102Z,15.00
2022-10-29T23:17:46.500Z,15.00
2022-10-29T23:20:13.817Z,15.00
2022-10-29T23:22:41.402Z,15.00
2022-10-29T23:25:11.422Z,15.00
2022-10-29T23:27:38.578Z,14.90
2022-10-29T23:30:08.249Z,14.90
2022-10-29T23:32:35.440Z,14.90
2022-10-29T23:35:02.516Z,14.90
2022-10-29T23:37:29.897Z,14.90
2022-10-29T23:39:57.288Z,14.90
2022-10-29T23:42:27.370Z,14.90
2022-10-29T23:44:54.909Z,14.90
2022-10-29T23:47:25.377Z,14.90
2022-10-29T23:49:52.755Z,14.80
2022-10-29T23:52:19.759Z,14.80
2022-10-29T23:54:47.364Z,14.80
2022-10-29T23:57:17.466Z,14.70
2022-10-29T23:59:44.560Z,14.80
